Weather observations for the past three days for
Bowman Regional Airport
Metric (Imperial)
Date Time (mdt) Wind (kph) Vis. (km) Weather Sky Cond. Temperature (ºC) Relative Humidity Wind Chill (°C) Heat Index (°C) Pressure Precipitation (cm)
Air Dwpt 6 hour altimeter (cm) sea level (mb) 1 hr 3 hr 6 hr
Max. Min.
04 09:55 NW 43 G 56 16.09 Partly Cloudy and Windy SCT120 9 -4 40% 5 75.74 0.0
04 09:35 NW 43 G 54 16.09 Mostly Cloudy and Windy BKN110 9 -4 40% 5 75.72 0.0
04 09:15 NW 35 G 50 16.09 Overcast and Breezy SCT055 SCT065 OVC110 9 -4 40% 5 75.74 0.0
04 08:55 N 39 G 48 16.09 Overcast and Breezy BKN050 OVC065 9 -3 43% 5 75.72 0.0
04 08:35 NW 35 G 44 16.09 Mostly Cloudy and Breezy SCT050 SCT055 BKN110 8 -3 46% 4 75.74 0.0
04 08:15 NW 37 16.09 Partly Cloudy and Breezy FEW048 SCT110 8 -3 46% 4 75.72 0.0
04 07:55 NW 26 G 43 16.09 A Few Clouds FEW080 FEW090 FEW100 7 -3 49% 3 75.72 0.0
04 07:35 NW 26 G 35 16.09 Mostly Cloudy SCT080 BKN095 7 -3 49% 3 75.69 0.0
04 07:15 N 30 16.09 Mostly Cloudy FEW065 SCT075 BKN095 7 -3 49% 3 75.69 0.0
04 06:55 NW 33 G 44 16.09 Overcast and Breezy SCT065 BKN075 OVC090 7 -3 49% 3 75.69 0.0
04 06:35 NW 37 G 52 16.09 Overcast and Breezy SCT065 OVC080 7 -1 57% 3 75.64 0.0
04 05:55 NW 30 16.09 Overcast FEW048 SCT060 OVC070 8 2 66% 4 75.59 0.0
04 05:35 NW 30 G 41 16.09 Mostly Cloudy FEW035 SCT060 BKN075 8 0 57% 4 75.59 0.0
04 05:15 NW 35 16.09 Partly Cloudy and Breezy FEW075 SCT100 8 1 62% 4 75.57 0.0
04 04:55 NW 35 G 44 16.09 Fair and Breezy CLR 8 0 57% 4 75.57 0.0
04 04:35 N 35 G 50 16.09 A Few Clouds and Breezy FEW110 9 0 54% 5 75.54 0.0
04 04:15 N 20 16.09 Fair CLR 8 0 57% 5 75.51 0.0
04 03:55 N 17 16.09 Partly Cloudy SCT095 8 1 62% 6 75.51 0.0
04 03:35 N 20 16.09 Overcast OVC100 8 3 71% 5 75.46 0.0
04 03:15 N 19 16.09 Overcast OVC100 7 4 81% 4 75.46 0.0
04 02:55 N 19 16.09 Partly Cloudy SCT100 6 3 81% 3 75.41 0.0
04 02:35 N 19 16.09 Fair CLR 5 3 87% 2 75.41 0.0
04 02:15 N 13 16.09 Fair CLR 6 2 76% 4 75.39 0.0
04 01:55 N 9 16.09 Fair CLR 8 2 66% 7 75.39 0.0
04 01:35 NE 11 16.09 Fair CLR 8 2 66% 6 75.39 0.0
04 01:15 NE 15 16.09 Fair CLR 8 2 66% 6 75.36 0.0
04 00:55 NE 19 16.09 Fair CLR 10 2 58% 8 75.36 0.0
04 00:35 NE 22 G 41 16.09 Fair CLR 11 1 50% 75.34 0.0
04 00:15 NW 24 16.09 Fair CLR 12 0 44% 75.31 0.0
03 23:55 NW 26 16.09 Fair CLR 11 1 50% 75.29 0.0
03 23:35 NW 22 16.09 Partly Cloudy SCT110 12 1 47% 75.26 0.0
03 23:15 W 24 16.09 A Few Clouds FEW110 12 1 47% 75.26 0.0
03 22:55 W 26 16.09 Partly Cloudy SCT100 13 1 44% 75.26 0.0
03 22:35 W 26 G 35 16.09 Mostly Cloudy BKN100 13 1 44% 75.26 0.0
03 22:15 W 24 16.09 Overcast OVC100 12 1 47% 75.26 0.0
03 21:55 W 26 16.09 Mostly Cloudy BKN110 11 1 50% 75.26 0.0
03 21:35 W 24 16.09 Partly Cloudy SCT110 11 0 47% 75.26 0.0
03 21:15 W 22 16.09 Fair CLR 12 0 44% 75.29 0.0
03 20:55 W 20 16.09 Fair CLR 13 0 41% 75.29 0.0
03 20:35 W 22 16.09 Fair CLR 15 -1 34% 75.31 0.0
03 20:15 W 24 16.09 Fair CLR 15 -1 34% 75.31 0.0
03 19:55 W 20 16.09 Fair CLR 17 -1 30% 75.31 0.0
03 19:35 W 24 16.09 A Few Clouds FEW085 19 -1 26% 75.34 0.0
03 19:15 W 28 16.09 Partly Cloudy SCT085 20 2 30% 75.34 0.0
03 18:55 W 24 G 35 16.09 Fair CLR 20 2 30% 75.36 0.0
03 18:35 W 30 16.09 Fair CLR 21 1 27% 75.36 0.0
03 18:15 W 24 G 35 16.09 Fair CLR 20 1 28% 75.39 0.0
03 17:55 NW 28 G 39 16.09 Fair CLR 21 1 27% 75.41 0.0
03 17:35 W 31 G 41 16.09 Fair CLR 22 1 25% 75.44 0.0
03 17:15 W 30 G 43 16.09 Fair CLR 21 1 27% 75.46 0.0
03 16:55 W 35 G 46 16.09 Fair and Breezy CLR 21 0 25% 75.46 0.0
03 16:35 W 31 G 46 16.09 A Few Clouds FEW085 22 0 23% 75.49 0.0
03 16:15 W 33 G 46 16.09 Fair and Breezy CLR 22 1 25% 75.51 0.0
03 15:55 W 37 G 48 16.09 Fair and Breezy CLR 22 1 25% 75.51 0.0
03 15:35 W 39 16.09 Fair and Breezy CLR 22 1 25% 75.57 0.0
03 15:15 W 28 G 44 16.09 Fair CLR 22 1 25% 75.59 0.0
03 14:55 W 30 G 46 16.09 Fair CLR 22 1 25% 75.62 0.0
03 14:35 W 33 G 50 16.09 A Few Clouds and Breezy FEW080 21 0 25% 75.64 0.0
03 14:15 W 33 16.09 Partly Cloudy and Breezy SCT080 21 1 27% 75.67 0.0
03 13:55 NW 26 G 43 16.09 Fair CLR 21 0 25% 75.69 0.0
03 12:55 W 31 G 44 16.09 A Few Clouds FEW080 20 0 26% 75.82 0.0
03 12:35 NW 41 16.09 Fair and Breezy CLR 20 0 26% 75.82 0.0
03 12:15 W 33 16.09 A Few Clouds and Breezy FEW075 20 0 26% 75.87 0.0
03 11:55 W 22 16.09 A Few Clouds FEW075 19 0 28% 75.9 0.0
03 11:35 W 28 16.09 Fair CLR 19 0 28% 75.92 0.0
03 11:15 W 20 G 31 16.09 Fair CLR 18 -1 28% 75.97 0.0
03 10:55 W 22 16.09 Fair CLR 18 0 30% 75.97 0.0
03 10:35 Vrbl 19 G 30 16.09 Fair CLR 18 0 30% 76 0.0
03 10:15 W 20 G 31 16.09 Fair CLR 17 0 32% 76.02 0.0
03 09:55 SW 22 16.09 Fair CLR 16 0 34% 76.02 0.0
03 09:35 W 24 16.09 Fair CLR 16 0 34% 76.05 0.0
03 09:15 SW 26 16.09 Fair CLR 15 1 39% 76.05 0.0
03 08:55 SW 26 16.09 Fair CLR 14 1 41% 76.05 0.0
03 08:35 SW 22 16.09 Fair CLR 13 1 44% 76.07 0.0
03 08:15 SW 24 16.09 Fair CLR 11 1 50% 76.07 0.0
03 07:55 SW 20 16.09 Fair CLR 11 0 47% 76.1 0.0
03 07:35 SW 17 16.09 Fair CLR 10 0 50% 8 76.12 0.0
03 07:15 SW 19 16.09 Fair CLR 8 0 57% 5 76.1 0.0
03 06:55 SW 17 16.09 Fair CLR 7 0 61% 4 76.1 0.0
03 06:35 SW 15 16.09 Fair CLR 5 -1 66% 2 76.12 0.0
03 06:15 SW 9 16.09 Fair CLR 4 -1 70% 2 76.12 0.0
03 05:55 SW 11 16.09 Fair CLR 4 -2 65% 2 76.1 0.0
03 05:35 SW 13 16.09 Fair CLR 4 -2 65% 1 76.12 0.0
03 05:15 SW 11 16.09 Fair CLR 5 -2 61% 3 76.12 0.0
03 04:55 SW 11 16.09 Fair CLR 5 -2 61% 3 76.12 0.0
03 04:35 SW 9 16.09 Fair CLR 5 -2 61% 3 76.15 0.0
03 04:15 SW 9 16.09 Fair CLR 5 -2 61% 3 76.15 0.0
03 03:55 Calm 16.09 Fair CLR 6 -3 53% 76.15 0.0
03 03:35 Calm 16.09 Fair CLR 7 -3 49% 76.15 0.0
03 03:15 Calm 16.09 Fair CLR 7 -2 53% 76.15 0.0
03 02:55 Calm 16.09 Fair CLR 7 -2 53% 76.15 0.0
03 02:35 Calm 16.09 Fair CLR 8 -2 50% 76.17 0.0
03 02:15 N 6 16.09 Fair CLR 7 -2 53% 76.15 0.0
03 01:55 N 6 16.09 Fair CLR 7 -2 53% 76.17 0.0
03 01:35 N 6 16.09 Fair CLR 8 -2 50% 76.17 0.0
03 01:15 N 7 16.09 Fair CLR 8 -2 50% 7 76.17 0.0
03 00:55 N 9 16.09 Fair CLR 8 -2 50% 7 76.17 0.0
03 00:35 N 9 16.09 A Few Clouds FEW090 8 -2 50% 7 76.17 0.0
03 00:15 N 13 16.09 Fair CLR 8 -2 50% 6 76.17 0.0
02 23:55 N 11 16.09 Fair CLR 8 -2 50% 6 76.15 0.0
02 23:35 N 13 16.09 Fair CLR 8 -1 53% 6 76.15 0.0
02 23:15 N 11 16.09 Fair CLR 8 -1 53% 6 76.12 0.0
02 22:55 N 15 16.09 Fair CLR 8 -1 53% 6 76.12 0.0
02 22:35 N 15 16.09 Fair CLR 8 -1 53% 6 76.12 0.0
02 22:15 N 11 16.09 Fair CLR 8 -1 53% 6 76.12 0.0
02 21:55 N 13 16.09 Fair CLR 9 0 54% 7 76.12 0.0
02 21:35 N 11 16.09 Fair CLR 9 0 54% 8 76.12 0.0
02 21:15 N 11 16.09 Fair CLR 10 0 50% 9 76.1 0.0
02 20:55 N 13 16.09 Fair CLR 11 0 47% 76.1 0.0
02 20:35 N 15 16.09 Fair CLR 11 0 47% 76.07 0.0
02 20:15 N 19 16.09 Fair CLR 12 1 47% 76.05 0.0
02 19:55 N 19 16.09 Fair CLR 14 1 41% 76.05 0.0
02 19:35 N 19 16.09 Fair CLR 15 1 39% 76.05 0.0
02 19:15 N 22 16.09 Fair CLR 16 1 36% 76.02 0.0
02 18:55 N 31 G 43 16.09 Fair CLR 17 0 32% 76.02 0.0
02 18:35 N 30 G 41 16.09 Fair CLR 18 0 30% 76.02 0.0
02 18:15 N 31 G 46 16.09 Fair CLR 18 0 30% 76.02 0.0
02 17:55 N 37 G 48 16.09 Fair and Breezy CLR 18 0 30% 76.02 0.0
02 17:35 N 35 16.09 Fair and Breezy CLR 19 1 30% 76.02 0.0
02 17:15 N 43 G 54 16.09 A Few Clouds and Windy FEW080 20 0 26% 76 0.0
02 16:55 N 37 G 52 16.09 A Few Clouds and Breezy FEW080 20 1 28% 76 0.0
02 16:35 N 30 G 50 16.09 A Few Clouds FEW085 20 0 26% 76 0.0
02 16:15 N 37 16.09 Fair and Breezy CLR 20 1 28% 76 0.0
02 15:55 N 33 G 50 16.09 Fair and Breezy CLR 20 0 26% 76 0.0
02 15:35 N 31 G 50 16.09 Fair CLR 21 1 27% 76 0.0
02 15:15 N 31 G 44 16.09 Fair CLR 21 2 29% 76 0.0
02 14:55 N 31 G 48 16.09 Fair CLR 21 2 29% 76 0.0
02 14:35 N 31 G 46 16.09 A Few Clouds FEW110 21 2 29% 75.97 0.0
02 14:15 N 31 G 41 16.09 Partly Cloudy SCT110 21 1 27% 76 0.0
02 13:55 N 24 G 39 16.09 Mostly Cloudy BKN110 21 1 27% 76 0.0
02 13:35 N 30 16.09 Mostly Cloudy BKN120 21 1 27% 76 0.0
02 13:15 N 24 16.09 Mostly Cloudy BKN110 21 1 27% 76 0.0
02 12:55 N 15 G 30 16.09 Fair CLR 20 1 28% 76.02 0.0
02 12:35 N 20 G 33 16.09 Partly Cloudy SCT120 20 1 28% 76 0.0
02 12:15 N 28 16.09 Mostly Cloudy BKN120 20 1 28% 76.02 0.0
02 11:55 NW 22 G 33 16.09 Mostly Cloudy BKN120 19 1 30% 76.02 0.0
02 11:35 N 22 G 33 16.09 A Few Clouds FEW120 19 0 28% 76.05 0.0
02 11:15 NW 26 G 37 16.09 Fair CLR 18 1 32% 76.05 0.0
02 10:55 NW 31 16.09 Fair CLR 19 0 28% 76.02 0.0
02 10:35 NW 37 16.09 Fair and Breezy CLR 19 0 28% 76.02 0.0
02 10:15 NW 39 16.09 Fair and Breezy CLR 18 1 32% 76.02 0.0
02 09:55 NW 37 16.09 Fair and Breezy CLR 18 0 30% 76.02 0.0
02 09:35 NW 22 G 33 16.09 A Few Clouds FEW110 17 1 34% 76.05 0.0
02 09:15 W 30 16.09 Mostly Cloudy BKN110 17 0 32% 76.05 0.0
02 08:55 W 28 16.09 Mostly Cloudy BKN120 16 0 34% 76.05 0.0
02 08:35 W 28 16.09 Mostly Cloudy BKN120 14 1 41% 76.05 0.0
02 08:15 SW 19 16.09 Partly Cloudy SCT120 10 2 58% 8 76.07 0.0
02 07:55 SW 22 G 31 16.09 Partly Cloudy SCT120 9 1 58% 6 76.07 0.0
02 07:35 SW 26 16.09 Fair CLR 9 0 54% 6 76.07 0.0
02 07:15 SW 24 16.09 Fair CLR 7 0 61% 4 76.1 0.0
02 06:55 SW 24 16.09 Fair CLR 5 0 70% 1 76.1 0.0
02 06:35 SW 26 16.09 Fair CLR 4 -1 70% -0 76.1 0.0
02 06:15 SW 22 16.09 Fair CLR 3 -1 75% -1 76.12 0.0
02 05:55 SW 28 16.09 Fair CLR 2 -1 81% -3 76.12 0.0
02 05:35 SW 30 16.09 Fair CLR 2 0 87% -3 76.12 0.0
02 05:15 SW 28 16.09 Fair CLR 2 0 87% -3 76.15 0.0
02 04:55 SW 30 16.09 Fair CLR 2 -1 81% -3 76.17 0.0
02 04:35 SW 30 16.09 Fair CLR 2 -1 81% -3 76.2 0.0
02 04:15 S 24 16.09 Fair CLR 2 -1 81% -3 76.23 0.0
02 03:55 S 28 16.09 Fair CLR 2 -1 81% -3 76.23 0.0
02 03:35 S 24 16.09 Fair CLR 3 -1 75% -2 76.25 0.0
02 03:15 S 13 16.09 Fair CLR 2 -1 81% -1 76.28 0.0
02 02:55 S 26 16.09 Fair CLR 2 -1 81% -3 76.25 0.0
02 02:35 S 28 16.09 Fair CLR 2 0 87% -3 76.25 0.0
02 02:15 S 28 16.09 Fair CLR 3 -1 75% -2 76.25 0.0
02 01:55 S 28 16.09 Fair CLR 2 -1 81% -3 76.3 0.0
02 01:35 S 28 16.09 Fair CLR 2 -1 81% -3 76.33 0.0
02 01:15 S 28 16.09 Fair CLR 2 -1 81% -3 76.35 0.0
02 00:55 S 26 16.09 Fair CLR 2 -1 81% -3 76.35 0.0
02 00:35 S 26 16.09 Fair CLR 3 -1 75% -2 76.38 0.0
02 00:15 SW 26 16.09 Fair CLR 3 -2 70% -2 76.38 0.0
01 23:55 S 26 16.09 Fair CLR 4 -2 65% -0 76.38 0.0
01 23:35 S 22 16.09 Fair CLR 4 -2 65% -0 76.38 0.0
01 23:15 S 22 16.09 Fair CLR 5 -2 61% 1 76.4 0.0
01 22:55 S 22 16.09 Fair CLR 5 -2 61% 1 76.4 0.0
01 22:35 S 19 16.09 Fair CLR 6 -2 57% 3 76.4 0.0
01 22:15 S 19 16.09 Fair CLR 7 -3 49% 4 76.43 0.0
01 21:55 S 19 16.09 Fair CLR 7 -3 49% 4 76.43 0.0
01 21:35 S 17 16.09 Fair CLR 8 -3 46% 6 76.43 0.0
01 21:15 S 19 16.09 Fair CLR 8 -3 46% 5 76.43 0.0
01 20:55 S 17 16.09 Fair CLR 8 -3 46% 6 76.4 0.0
01 20:35 SW 15 16.09 Fair CLR 9 -2 46% 7 76.4 0.0
01 20:15 SW 19 16.09 Fair CLR 9 -2 46% 7 76.4 0.0
01 19:55 SW 15 16.09 Fair CLR 11 -3 38% 76.4 0.0
01 19:35 SW 15 16.09 Fair CLR 11 -2 41% 76.4 0.0
01 19:15 SW 15 16.09 Fair CLR 13 -2 36% 76.4 0.0
01 18:55 SW 11 16.09 Fair CLR 15 -5 25% 76.4 0.0
01 18:35 S 6 16.09 Fair CLR 15 -5 25% 76.4 0.0
01 18:15 Calm 16.09 Fair CLR 16 -6 22% 76.43 0.0
01 17:55 SW 11 16.09 Fair CLR 16 -6 22% 76.4 0.0
01 17:35 SE 6 16.09 Fair CLR 16 -7 20% 76.43 0.0
01 17:15 SW 9 16.09 Fair CLR 16 -6 22% 76.43 0.0
01 16:55 N 9 16.09 Fair CLR 16 -7 20% 76.4 0.0
01 16:35 Vrbl 7 16.09 Fair CLR 15 -7 21% 76.43 0.0
01 16:15 E 13 16.09 Fair CLR 16 -6 22% 76.43 0.0
01 15:55 E 6 16.09 Fair CLR 16 -6 22% 76.43 0.0
01 15:35 Vrbl 11 16.09 Fair CLR 16 -7 20% 76.45 0.0
01 15:15 E 13 16.09 Fair CLR 16 -6 22% 76.45 0.0
01 14:55 NE 7 G 20 16.09 Fair CLR 15 -7 21% 76.48 0.0
01 14:35 Calm 16.09 A Few Clouds FEW080 15 -6 23% 76.48 0.0
01 14:15 Vrbl 11 16.09 Fair CLR 15 -6 23% 76.45 0.0
01 13:55 Vrbl 9 G 24 16.09 A Few Clouds FEW080 15 -7 21% 76.48 0.0
01 13:35 NE 15 16.09 Fair CLR 15 -5 25% 76.48 0.0
01 13:15 N 9 16.09 Fair CLR 14 -6 25% 76.48 0.0
01 12:55 Vrbl 7 G 22 16.09 Fair CLR 14 -6 25% 76.48 0.0
01 12:35 Calm 16.09 Fair CLR 13 -6 26% 76.5 0.0
01 11:55 E 20 16.09 Fair CLR 14 -4 29% 76.5 0.0
01 11:35 Vrbl 6 G 20 16.09 Fair CLR 13 -6 26% 76.53 0.0
01 11:15 Calm 16.09 Fair CLR 12 -6 28% 76.5 0.0
01 10:55 Vrbl 9 G 20 16.09 Fair CLR 12 -6 28% 76.5 0.0
01 10:35 E 19 16.09 Fair CLR 12 -6 28% 76.5 0.0
01 10:15 Calm 16.09 Fair CLR 11 -6 30% 76.5 0.0
Date Time (mdt) Wind (kph) Vis. (km) Weather Sky Cond. Air Dwpt Max. Min. Relative Humidity Wind Chill (°C) Heat Index (°C) altimeter (cm) sea level (mb) 1 hr 3 hr 6 hr
6 hour
Temperature (ºC) Pressure Precipitation (cm)